Time;durP1;ratioP1;P1;durP2;ratioP2;P2;SDS_P1;SDS_P2;PMS_P1;PMS_P2;Temp;Humidity;BMP_temperature;BMP_pressure;BME280_temperature;BME280_humidity;BME280_pressure;Samples;Min_cycle;Max_cycle;Signal;HPM_P1;HPM_P2
2022/02/21 00:00:07;;;;;;;;;;;;;;;5.50;92.61;98572.06;2113338;28;46719;-70
2022/02/21 00:01:13;;;;;;;;;;;;;;;5.48;94.29;98584.53;2114159;28;19932;-70
2022/02/21 00:02:15;;;;;;;;;;;;;;;5.47;93.51;98623.50;2113218;28;44537;-70
2022/02/21 00:03:20;;;;;;;;;;;;;;;5.46;93.69;98616.44;2104252;28;44402;-70
2022/02/21 00:04:21;;;;;;;;;;;;;;;5.47;93.25;98638.53;2104761;28;44178;-70
2022/02/21 00:05:23;;;;;;;;;;;;;;;5.47;92.79;98631.47;2112782;28;46540;-70
2022/02/21 00:06:25;;;;;;;;;;;;;;;5.46;93.62;98634.16;2113663;28;37565;-70
2022/02/21 00:07:26;;;;;;;;;;;;;;;5.45;93.64;98637.72;2113253;28;43034;-71
2022/02/21 00:08:28;;;;;;;;;;;;;;;5.46;93.91;98634.16;2112999;28;45958;-71
2022/02/21 00:09:30;;;;;;;;;;;;;;;5.47;93.37;98625.25;2114002;28;19916;-70
2022/02/21 00:10:34;;;;;;;;;;;;;;;5.48;93.30;98640.28;2113838;28;20677;-72
2022/02/21 00:11:36;;;;;;;;;;;;;;;5.49;93.86;98655.25;2113655;28;32112;-71
2022/02/21 00:12:39;;;;;;;;;;;;;;;5.49;93.01;98645.53;2113146;28;43815;-70
2022/02/21 00:13:40;;;;;;;;;;;;;;;5.50;93.55;98633.13;2113251;28;45999;-71
2022/02/21 00:14:42;;;;;;;;;;;;;;;5.45;94.18;98608.53;2113391;28;42281;-70
2022/02/21 00:15:44;;;;;;;;;;;;;;;5.46;94.32;98613.78;2112642;28;45681;-70
2022/02/21 00:16:45;;;;;;;;;;;;;;;5.47;94.64;98633.22;2113432;28;44177;-70
2022/02/21 00:17:47;;;;;;;;;;;;;;;5.46;94.28;98632.38;2114772;28;45589;-70
2022/02/21 00:18:48;;;;;;;;;;;;;;;5.46;93.56;98620.91;2114331;28;46049;-70
2022/02/21 00:19:53;;;;;;;;;;;;;;;5.46;93.70;98636.81;2114274;28;20020;-71
2022/02/21 00:20:54;;;;;;;;;;;;;;;5.48;93.22;98661.50;2113254;28;45766;-70
2022/02/21 00:21:56;;;;;;;;;;;;;;;5.51;93.08;98633.06;2112657;28;46363;-70
2022/02/21 00:22:58;;;;;;;;;;;;;;;5.53;93.57;98648.94;2113907;28;20135;-71
2022/02/21 00:24:00;;;;;;;;;;;;;;;5.52;92.90;98663.09;2114244;28;20074;-71
2022/02/21 00:25:02;;;;;;;;;;;;;;;5.52;93.19;98655.16;2112807;28;43231;-71
2022/02/21 00:26:04;;;;;;;;;;;;;;;5.49;94.31;98672.06;2113751;28;19924;-71
2022/02/21 00:27:06;;;;;;;;;;;;;;;5.50;93.77;98652.53;2104192;28;21736;-71
2022/02/21 00:28:07;;;;;;;;;;;;;;;5.50;93.44;98664.97;2104721;28;31181;-71
2022/02/21 00:29:11;;;;;;;;;;;;;;;5.50;93.81;98657.84;2112864;28;34876;-71
2022/02/21 00:30:12;;;;;;;;;;;;;;;5.51;93.71;98672.00;2112844;28;43141;-71
2022/02/21 00:31:14;;;;;;;;;;;;;;;5.49;93.43;98677.38;2112732;28;43438;-71
2022/02/21 00:32:16;;;;;;;;;;;;;;;5.51;92.41;98685.28;2113068;28;46354;-70
2022/02/21 00:33:17;;;;;;;;;;;;;;;5.51;92.81;98691.44;2113080;28;45196;-70
2022/02/21 00:34:19;;;;;;;;;;;;;;;5.50;92.76;98710.94;2112956;28;46220;-71
2022/02/21 00:35:20;;;;;;;;;;;;;;;5.49;92.54;98711.00;2113159;28;42724;-71
2022/02/21 00:36:22;;;;;;;;;;;;;;;5.48;92.00;98703.97;2112701;28;43405;-71
2022/02/21 00:37:23;;;;;;;;;;;;;;;5.49;92.26;98718.94;2113196;28;39509;-71
2022/02/21 00:38:25;;;;;;;;;;;;;;;5.46;92.93;98713.78;2114043;28;19920;-72
2022/02/21 00:39:27;;;;;;;;;;;;;;;5.45;92.44;98714.69;2112851;28;46901;-71
2022/02/21 00:40:29;;;;;;;;;;;;;;;5.44;91.30;98719.16;2113438;28;44431;-70
2022/02/21 00:41:30;;;;;;;;;;;;;;;5.41;91.46;98729.00;2113115;28;36606;-71
2022/02/21 00:42:32;;;;;;;;;;;;;;;5.42;92.20;98734.25;2112873;28;44927;-70
2022/02/21 00:43:33;;;;;;;;;;;;;;;5.38;91.78;98731.78;2113049;28;44374;-70
2022/02/21 00:44:36;;;;;;;;;;;;;;;5.37;91.58;98738.88;2114104;28;20024;-70
2022/02/21 00:45:38;;;;;;;;;;;;;;;5.32;92.43;98754.94;2112873;28;45031;-70
2022/02/21 00:46:40;;;;;;;;;;;;;;;5.30;92.75;98745.34;2113432;28;22979;-70
2022/02/21 00:47:41;;;;;;;;;;;;;;;5.28;92.88;98750.69;2112752;28;46570;-70
2022/02/21 00:48:43;;;;;;;;;;;;;;;5.25;92.67;98741.97;2113178;28;43073;-70
2022/02/21 00:49:46;;;;;;;;;;;;;;;5.21;93.00;98743.03;2112928;28;44376;-70
2022/02/21 00:50:48;;;;;;;;;;;;;;;5.19;92.07;98753.69;2112912;28;44535;-70
2022/02/21 00:51:50;;;;;;;;;;;;;;;5.17;92.84;98739.63;2113603;28;20046;-70
2022/02/21 00:52:52;;;;;;;;;;;;;;;5.15;91.58;98754.69;2113699;28;20697;-69
2022/02/21 00:53:55;;;;;;;;;;;;;;;5.18;91.90;98764.34;2114171;28;19959;-71
2022/02/21 00:54:56;;;;;;;;;;;;;;;5.13;91.40;98777.75;2113038;28;41365;-70
2022/02/21 00:55:58;;;;;;;;;;;;;;;5.16;92.89;98804.19;2111838;28;43644;-71
2022/02/21 00:56:59;;;;;;;;;;;;;;;5.02;89.82;98787.88;2112228;28;44013;-70
2022/02/21 00:58:03;;;;;;;;;;;;;;;4.95;89.93;98806.69;2112818;28;46184;-70
2022/02/21 00:59:05;;;;;;;;;;;;;;;4.85;89.10;98776.09;2113157;28;41790;-70
2022/02/21 01:00:07;;;;;;;;;;;;;;;4.85;88.79;98818.50;2113001;28;45488;-70
2022/02/21 01:01:11;;;;;;;;;;;;;;;4.75;89.19;98795.88;2113978;28;20765;-70
2022/02/21 01:02:12;;;;;;;;;;;;;;;4.71;89.00;98794.25;2112871;28;45314;-70
2022/02/21 01:03:14;;;;;;;;;;;;;;;4.63;90.68;98781.25;2112388;28;45729;-68
2022/02/21 01:04:16;;;;;;;;;;;;;;;4.59;89.65;98791.09;2113146;28;45861;-69
2022/02/21 01:05:18;;;;;;;;;;;;;;;4.51;90.02;98782.53;2113142;28;34136;-69
2022/02/21 01:06:19;;;;;;;;;;;;;;;4.50;89.33;98786.09;2114631;28;43942;-70
2022/02/21 01:07:21;;;;;;;;;;;;;;;4.50;90.32;98786.09;2114614;28;43039;-70
2022/02/21 01:08:24;;;;;;;;;;;;;;;4.47;89.59;98780.00;2114320;28;44354;-70
2022/02/21 01:09:25;;;;;;;;;;;;;;;4.47;90.44;98788.84;2114579;28;44488;-70
2022/02/21 01:10:27;;;;;;;;;;;;;;;4.47;90.23;98780.91;2115019;28;19931;-70
2022/02/21 01:11:31;;;;;;;;;;;;;;;4.48;91.41;98790.56;2114836;28;20039;-70
2022/02/21 01:12:33;;;;;;;;;;;;;;;4.42;91.39;98803.19;2114102;28;44374;-70
2022/02/21 01:13:35;;;;;;;;;;;;;;;4.43;90.24;98794.28;2114022;28;46505;-70
2022/02/21 01:14:36;;;;;;;;;;;;;;;4.42;90.98;98788.13;2114454;28;44026;-70
2022/02/21 01:15:38;;;;;;;;;;;;;;;4.42;90.76;98813.78;2114508;28;45703;-70
2022/02/21 01:16:42;;;;;;;;;;;;;;;4.43;90.85;98807.53;2115453;28;20379;-70
2022/02/21 01:17:46;;;;;;;;;;;;;;;4.45;91.54;98819.84;2114504;28;42762;-71
2022/02/21 01:18:49;;;;;;;;;;;;;;;4.42;91.10;98825.22;2114435;28;41774;-71
2022/02/21 01:19:50;;;;;;;;;;;;;;;4.47;91.24;98810.06;2114430;28;44523;-70
2022/02/21 01:20:52;;;;;;;;;;;;;;;4.47;90.76;98818.00;2114335;28;45373;-71
2022/02/21 01:21:53;;;;;;;;;;;;;;;4.46;90.04;98808.31;2114651;28;37427;-70
2022/02/21 01:22:55;;;;;;;;;;;;;;;4.48;89.61;98811.78;2115490;28;20008;-70
2022/02/21 01:23:56;;;;;;;;;;;;;;;4.48;89.48;98825.03;2114978;28;44184;-70
2022/02/21 01:24:58;;;;;;;;;;;;;;;4.51;90.09;98821.41;2114364;28;39424;-70
2022/02/21 01:26:02;;;;;;;;;;;;;;;4.48;90.58;98829.47;2115014;28;19932;-70
2022/02/21 01:27:06;;;;;;;;;;;;;;;4.44;90.33;98828.69;2114108;28;43162;-70
2022/02/21 01:28:09;;;;;;;;;;;;;;;4.43;90.41;98823.44;2114415;28;44411;-70
2022/02/21 01:29:15;;;;;;;;;;;;;;;4.42;89.86;98834.97;2114354;28;45142;-70
2022/02/21 01:30:16;;;;;;;;;;;;;;;4.42;89.99;98832.31;2105222;28;46574;-70
2022/02/21 01:31:18;;;;;;;;;;;;;;;4.39;89.43;98825.31;2105109;28;42983;-70
2022/02/21 01:32:20;;;;;;;;;;;;;;;4.41;90.27;98828.78;2114200;28;41017;-70
2022/02/21 01:33:21;;;;;;;;;;;;;;;4.39;90.59;98842.06;2114345;28;44543;-70
2022/02/21 01:34:23;;;;;;;;;;;;;;;4.42;90.50;98834.97;2113916;28;42842;-70
2022/02/21 01:35:24;;;;;;;;;;;;;;;4.40;89.38;98842.97;2114156;28;44056;-68
2022/02/21 01:36:26;;;;;;;;;;;;;;;4.39;89.85;98847.38;2114363;28;42780;-70
2022/02/21 01:37:27;;;;;;;;;;;;;;;4.42;89.48;98846.44;2114109;28;45409;-70
2022/02/21 01:38:29;;;;;;;;;;;;;;;4.45;89.71;98835.75;2114050;28;44806;-70
2022/02/21 01:39:33;;;;;;;;;;;;;;;4.48;89.62;98856.81;2114355;28;42982;-71
2022/02/21 01:40:34;;;;;;;;;;;;;;;4.44;89.28;98870.22;2104695;28;46439;-70
2022/02/21 01:41:36;;;;;;;;;;;;;;;4.43;90.01;98861.38;2105227;28;35473;-70
2022/02/21 01:42:37;;;;;;;;;;;;;;;4.43;89.99;98860.53;2114064;28;44057;-70
2022/02/21 01:43:39;;;;;;;;;;;;;;;4.46;89.60;98871.03;2114772;28;20070;-70
2022/02/21 01:44:45;;;;;;;;;;;;;;;4.47;88.88;98880.72;2114322;28;45227;-70
2022/02/21 01:45:46;;;;;;;;;;;;;;;4.51;90.16;98888.53;2113686;28;45068;-71
2022/02/21 01:46:48;;;;;;;;;;;;;;;4.50;89.76;98881.47;2114329;28;43896;-70
2022/02/21 01:47:49;;;;;;;;;;;;;;;4.49;90.95;98855.91;2114113;28;43836;-70
2022/02/21 01:48:51;;;;;;;;;;;;;;;4.48;90.75;98885.97;2114251;28;45248;-70
2022/02/21 01:49:55;;;;;;;;;;;;;;;4.46;90.33;98890.44;2114353;28;44365;-70
2022/02/21 01:50:57;;;;;;;;;;;;;;;4.47;90.71;98883.34;2114452;28;46098;-69
2022/02/21 01:51:59;;;;;;;;;;;;;;;4.46;90.79;98873.69;2114166;28;44795;-69
2022/02/21 01:53:01;;;;;;;;;;;;;;;4.43;92.04;98874.63;2114507;28;40729;-70
2022/02/21 01:54:08;;;;;;;;;;;;;;;4.45;91.76;98877.25;2114079;28;44907;-69
2022/02/21 01:55:11;;;;;;;;;;;;;;;4.45;91.16;98894.03;2114035;28;41704;-70
2022/02/21 01:56:13;;;;;;;;;;;;;;;4.45;91.59;98909.94;2114029;28;39106;-70
2022/02/21 01:57:14;;;;;;;;;;;;;;;4.46;91.58;98893.09;2104608;28;45650;-70
2022/02/21 01:58:16;;;;;;;;;;;;;;;4.46;91.24;98895.75;2099941;28;43808;-70
2022/02/21 01:59:17;;;;;;;;;;;;;;;4.45;90.05;98901.97;2113614;28;45443;-69
2022/02/21 02:00:19;;;;;;;;;;;;;;;4.43;89.37;98901.13;2114277;28;38589;-71
2022/02/21 02:01:23;;;;;;;;;;;;;;;4.42;90.43;98899.41;2104687;28;44180;-69
2022/02/21 02:02:24;;;;;;;;;;;;;;;4.40;89.85;98917.16;2105408;28;44383;-70
2022/02/21 02:03:26;;;;;;;;;;;;;;;4.39;90.27;98908.31;2114248;28;45237;-70
2022/02/21 02:04:28;;;;;;;;;;;;;;;4.39;90.33;98912.75;2114275;28;45219;-70
2022/02/21 02:05:29;;;;;;;;;;;;;;;4.34;89.73;98912.00;2114161;28;44358;-70
2022/02/21 02:06:32;;;;;;;;;;;;;;;4.30;90.45;98921.84;2113700;28;45477;-70
2022/02/21 02:07:34;;;;;;;;;;;;;;;4.28;89.88;98921.03;2114754;28;22336;-70
2022/02/21 02:08:36;;;;;;;;;;;;;;;4.29;90.01;98908.63;2114571;28;43233;-69
2022/02/21 02:09:38;;;;;;;;;;;;;;;4.36;90.77;98915.47;2113935;28;44175;-69
2022/02/21 02:10:40;;;;;;;;;;;;;;;4.36;89.41;98926.06;2114046;28;44762;-70
2022/02/21 02:11:44;;;;;;;;;;;;;;;4.38;90.38;98918.97;2114002;28;45333;-70
2022/02/21 02:12:45;;;;;;;;;;;;;;;4.39;89.36;98920.69;2114100;28;46927;-70
2022/02/21 02:13:51;;;;;;;;;;;;;;;4.39;88.87;98918.91;2114003;28;42854;-70
2022/02/21 02:14:52;;;;;;;;;;;;;;;4.40;88.96;98922.44;2113993;28;45856;-70
2022/02/21 02:15:54;;;;;;;;;;;;;;;4.37;89.24;98917.22;2115113;28;23779;-70
2022/02/21 02:17:01;;;;;;;;;;;;;;;4.37;89.75;98923.38;2113806;27;43846;-70
2022/02/21 02:18:05;;;;;;;;;;;;;;;4.38;90.27;98927.78;2114686;28;20081;-70
2022/02/21 02:19:06;;;;;;;;;;;;;;;4.41;89.78;98924.16;2114143;28;41838;-70
2022/02/21 02:20:09;;;;;;;;;;;;;;;4.43;88.63;98918.81;2114027;28;45351;-70
2022/02/21 02:21:18;;;;;;;;;;;;;;;4.43;89.36;98937.38;2114262;28;40602;-70
2022/02/21 02:22:23;;;;;;;;;;;;;;;4.42;88.85;98936.50;2114762;28;20001;-70
2022/02/21 02:23:25;;;;;;;;;;;;;;;4.37;89.02;98922.53;2113864;28;46187;-69
2022/02/21 02:24:26;;;;;;;;;;;;;;;4.30;89.69;98945.69;2114056;28;42804;-69
2022/02/21 02:25:28;;;;;;;;;;;;;;;4.25;89.86;98949.38;2115289;28;25496;-71
2022/02/21 02:26:30;;;;;;;;;;;;;;;4.20;90.20;98947.75;2113961;28;45574;-70
2022/02/21 02:27:33;;;;;;;;;;;;;;;4.15;90.44;98959.38;2114091;28;44152;-70
2022/02/21 02:28:37;;;;;;;;;;;;;;;4.12;89.56;98965.63;2113749;28;46582;-70
2022/02/21 02:29:41;;;;;;;;;;;;;;;4.09;90.69;98955.13;2113618;28;41855;-70
2022/02/21 02:30:42;;;;;;;;;;;;;;;4.02;89.44;98950.94;2114392;28;45471;-70
2022/02/21 02:31:44;;;;;;;;;;;;;;;4.01;88.98;98951.84;2113998;28;29612;-70
2022/02/21 02:32:48;;;;;;;;;;;;;;;4.04;88.93;98964.09;2104995;28;43067;-70
2022/02/21 02:33:56;;;;;;;;;;;;;;;3.99;87.69;98966.91;2106569;28;35636;-70
2022/02/21 02:34:57;;;;;;;;;;;;;;;4.03;88.29;98975.63;2113961;28;45079;-70
2022/02/21 02:36:00;;;;;;;;;;;;;;;3.99;88.39;98958.94;2113730;28;44450;-70
2022/02/21 02:37:01;;;;;;;;;;;;;;;3.96;88.46;98959.03;2114008;28;46370;-70
2022/02/21 02:38:03;;;;;;;;;;;;;;;3.97;87.75;98958.13;2115009;28;19961;-70
2022/02/21 02:39:05;;;;;;;;;;;;;;;3.97;88.14;98964.28;2113540;28;44220;-70
2022/02/21 02:40:07;;;;;;;;;;;;;;;3.95;87.67;98968.75;2114190;28;46138;-70
2022/02/21 02:41:09;;;;;;;;;;;;;;;3.93;87.51;98970.59;2113958;28;40052;-70
2022/02/21 02:42:11;;;;;;;;;;;;;;;3.92;87.24;98967.97;2113851;28;44987;-70
2022/02/21 02:43:14;;;;;;;;;;;;;;;3.92;86.77;98975.91;2115017;28;20078;-70
2022/02/21 02:44:15;;;;;;;;;;;;;;;3.91;86.76;98969.78;2114413;28;34486;-70
2022/02/21 02:45:17;;;;;;;;;;;;;;;3.86;88.06;98974.31;2113912;28;44687;-70
2022/02/21 02:46:19;;;;;;;;;;;;;;;3.85;87.90;98974.34;2113757;28;44365;-70
2022/02/21 02:47:22;;;;;;;;;;;;;;;3.80;87.95;98967.41;2113458;28;46277;-70
2022/02/21 02:48:26;;;;;;;;;;;;;;;3.83;87.54;98971.75;2113512;28;42704;-70
2022/02/21 02:49:28;;;;;;;;;;;;;;;3.85;86.89;98982.28;2114030;28;41090;-70
2022/02/21 02:50:29;;;;;;;;;;;;;;;3.85;87.41;98982.28;2113651;28;44296;-70
2022/02/21 02:51:31;;;;;;;;;;;;;;;3.89;86.00;98962.75;2113847;28;45116;-70
2022/02/21 02:52:33;;;;;;;;;;;;;;;3.93;85.29;98957.34;2113504;28;44934;-70
2022/02/21 02:53:34;;;;;;;;;;;;;;;3.99;84.88;98962.47;2114260;28;37126;-70
2022/02/21 02:54:36;;;;;;;;;;;;;;;3.98;84.92;98970.44;2113927;28;45193;-70
2022/02/21 02:55:38;;;;;;;;;;;;;;;3.96;85.68;98970.47;2113547;28;46419;-71
2022/02/21 02:56:41;;;;;;;;;;;;;;;3.96;85.21;98969.63;2113393;28;44023;-70
2022/02/21 02:57:43;;;;;;;;;;;;;;;3.98;84.87;98962.50;2113742;28;41832;-70
2022/02/21 02:58:44;;;;;;;;;;;;;;;3.95;85.11;98975.84;2113196;28;43537;-70
2022/02/21 02:59:46;;;;;;;;;;;;;;;3.92;85.11;98975.91;2113824;28;44365;-70
2022/02/21 03:00:48;;;;;;;;;;;;;;;3.93;84.62;98990.88;2113949;28;43942;-70
2022/02/21 03:01:53;;;;;;;;;;;;;;;3.88;84.91;98982.22;2113417;28;44588;-70
2022/02/21 03:02:56;;;;;;;;;;;;;;;3.92;85.40;98975.91;2113809;28;45911;-70
2022/02/21 03:03:58;;;;;;;;;;;;;;;3.92;84.86;98994.44;2113411;28;44553;-70
2022/02/21 03:05:00;;;;;;;;;;;;;;;3.91;85.69;98998.00;2113952;28;45507;-70
2022/02/21 03:06:01;;;;;;;;;;;;;;;3.90;85.46;99005.09;2113849;28;46200;-69
2022/02/21 03:07:03;;;;;;;;;;;;;;;3.95;86.04;98995.25;2113763;28;42683;-70
2022/02/21 03:08:04;;;;;;;;;;;;;;;3.90;84.89;98978.59;2113505;28;44080;-71
2022/02/21 03:09:06;;;;;;;;;;;;;;;3.83;84.50;99007.00;2114760;28;20079;-70
2022/02/21 03:10:13;;;;;;;;;;;;;;;3.85;84.59;99000.81;2113921;28;43968;-70
2022/02/21 03:11:14;;;;;;;;;;;;;;;3.83;83.80;98996.44;2113796;28;46267;-70
2022/02/21 03:12:16;;;;;;;;;;;;;;;3.82;83.86;99004.41;2113522;28;44032;-70
2022/02/21 03:13:17;;;;;;;;;;;;;;;3.81;84.00;99015.91;2113417;28;44108;-70
2022/02/21 03:14:20;;;;;;;;;;;;;;;3.75;84.78;99010.78;2113663;28;46065;-70
2022/02/21 03:15:22;;;;;;;;;;;;;;;3.75;85.69;99018.72;2114000;28;44877;-70
2022/02/21 03:16:23;;;;;;;;;;;;;;;3.71;84.38;99015.28;2113662;28;38756;-70
2022/02/21 03:17:25;;;;;;;;;;;;;;;3.68;85.28;99022.44;2114039;28;23606;-70
2022/02/21 03:18:26;;;;;;;;;;;;;;;3.67;84.96;99021.56;2113790;28;42893;-70
2022/02/21 03:19:28;;;;;;;;;;;;;;;3.65;85.63;99026.03;2113455;28;46650;-70
2022/02/21 03:20:29;;;;;;;;;;;;;;;3.66;85.13;99024.25;2113498;28;40325;-70
2022/02/21 03:21:31;;;;;;;;;;;;;;;3.65;85.00;99026.03;2113016;28;44678;-70
2022/02/21 03:22:33;;;;;;;;;;;;;;;3.64;85.91;99037.50;2113515;28;44404;-70
2022/02/21 03:23:35;;;;;;;;;;;;;;;3.64;85.67;99032.22;2114295;28;19916;-70
2022/02/21 03:24:38;;;;;;;;;;;;;;;3.65;85.52;99026.03;2114428;28;20831;-70
2022/02/21 03:25:40;;;;;;;;;;;;;;;3.67;86.56;99026.00;2113276;28;42718;-70
2022/02/21 03:26:41;;;;;;;;;;;;;;;3.66;85.93;99003.97;2104241;28;45121;-70
2022/02/21 03:27:44;;;;;;;;;;;;;;;3.69;85.30;99024.19;2105602;28;20867;-70
2022/02/21 03:28:48;;;;;;;;;;;;;;;3.75;84.24;99022.25;2114206;28;20065;-70
2022/02/21 03:29:50;;;;;;;;;;;;;;;3.75;83.81;99042.53;2113409;28;32648;-70
2022/02/21 03:30:53;;;;;;;;;;;;;;;3.75;83.74;99016.94;2113547;28;44652;-70
2022/02/21 03:31:55;;;;;;;;;;;;;;;3.79;83.53;99036.28;2103843;28;45270;-70
2022/02/21 03:33:00;;;;;;;;;;;;;;;3.79;83.54;99046.84;2104781;28;45876;-70
2022/02/21 03:34:01;;;;;;;;;;;;;;;3.75;83.02;99038.13;2113105;28;45535;-71
2022/02/21 03:35:04;;;;;;;;;;;;;;;3.82;83.81;99049.41;2113044;28;42870;-70
2022/02/21 03:36:06;;;;;;;;;;;;;;;3.79;83.61;99057.44;2113740;28;19941;-70
2022/02/21 03:37:09;;;;;;;;;;;;;;;3.76;83.59;99058.38;2104662;28;43280;-70
2022/02/21 03:38:10;;;;;;;;;;;;;;;3.72;84.78;99053.22;2104753;28;35237;-69
2022/02/21 03:39:12;;;;;;;;;;;;;;;3.69;84.13;99053.28;2113476;28;43016;-70
2022/02/21 03:40:14;;;;;;;;;;;;;;;3.68;84.78;99059.47;2114390;28;20058;-70
2022/02/21 03:41:16;;;;;;;;;;;;;;;3.65;85.04;99049.84;2113667;28;44408;-70
2022/02/21 03:42:18;;;;;;;;;;;;;;;3.64;85.52;99053.38;2112930;28;42303;-70
2022/02/21 03:43:20;;;;;;;;;;;;;;;3.61;85.34;99049.06;2114067;28;19928;-70
2022/02/21 03:44:21;;;;;;;;;;;;;;;3.56;85.70;99050.94;2112488;28;36638;-70
2022/02/21 03:45:32;;;;;;;;;;;;;;;3.54;85.97;99057.19;2113984;28;19935;-70
2022/02/21 03:46:37;;;;;;;;;;;;;;;3.53;85.95;99066.03;2112624;28;46040;-69
2022/02/21 03:47:38;;;;;;;;;;;;;;;3.52;86.11;99059.00;2113430;28;44102;-70
2022/02/21 03:48:40;;;;;;;;;;;;;;;3.50;85.85;99072.28;2113279;28;46470;-70
2022/02/21 03:49:41;;;;;;;;;;;;;;;3.50;85.76;99061.69;2113366;28;44629;-70
2022/02/21 03:50:43;;;;;;;;;;;;;;;3.50;86.28;99064.34;2113396;28;43003;-70
2022/02/21 03:51:45;;;;;;;;;;;;;;;3.51;85.73;99070.50;2113276;28;39513;-70
2022/02/21 03:52:47;;;;;;;;;;;;;;;3.50;85.99;99081.97;2113385;28;45352;-70
2022/02/21 03:53:48;;;;;;;;;;;;;;;3.53;86.24;99076.63;2113268;28;45741;-70
2022/02/21 03:54:52;;;;;;;;;;;;;;;3.50;85.51;99084.63;2113373;28;42058;-70
2022/02/21 03:55:55;;;;;;;;;;;;;;;3.52;85.90;99088.13;2113468;28;45523;-70
2022/02/21 03:56:59;;;;;;;;;;;;;;;3.53;86.86;99087.19;2113219;28;45922;-70
2022/02/21 03:58:03;;;;;;;;;;;;;;;3.50;86.55;99087.25;2113398;28;40352;-71
2022/02/21 03:59:05;;;;;;;;;;;;;;;3.47;86.65;99088.22;2112717;28;45013;-70
2022/02/21 04:00:12;;;;;;;;;;;;;;;3.46;86.54;99080.31;2113957;28;44198;-70
2022/02/21 04:01:14;;;;;;;;;;;;;;;3.44;86.51;99078.56;2113463;28;45506;-68
2022/02/21 04:02:15;;;;;;;;;;;;;;;3.43;85.06;99090.06;2113468;28;36113;-70
2022/02/21 04:03:17;;;;;;;;;;;;;;;3.41;85.56;99080.41;2113395;28;44381;-70
2022/02/21 04:04:18;;;;;;;;;;;;;;;3.41;85.19;99089.25;2113261;28;44547;-68
2022/02/21 04:05:20;;;;;;;;;;;;;;;3.50;83.28;99077.56;2113261;28;44844;-70
2022/02/21 04:06:22;;;;;;;;;;;;;;;3.58;83.43;99090.59;2113459;28;42596;-70
2022/02/21 04:07:23;;;;;;;;;;;;;;;3.63;83.81;99078.13;2113001;28;46330;-70
2022/02/21 04:08:25;;;;;;;;;;;;;;;3.62;82.24;99073.72;2113485;28;44078;-70
2022/02/21 04:09:27;;;;;;;;;;;;;;;3.66;82.02;99088.66;2113422;28;45476;-70
2022/02/21 04:10:28;;;;;;;;;;;;;;;3.67;81.94;99085.06;2113196;28;46222;-70
2022/02/21 04:11:30;;;;;;;;;;;;;;;3.68;81.63;99091.22;2104084;28;43189;-70
2022/02/21 04:12:31;;;;;;;;;;;;;;;3.69;82.25;99103.56;2104370;28;42147;-70
2022/02/21 04:13:33;;;;;;;;;;;;;;;3.70;81.98;99095.59;2112555;28;28738;-70
2022/02/21 04:14:34;;;;;;;;;;;;;;;3.66;82.33;99101.88;2104142;28;46602;-70
2022/02/21 04:15:36;;;;;;;;;;;;;;;3.68;82.39;99102.72;2104080;28;45709;-70
2022/02/21 04:16:37;;;;;;;;;;;;;;;3.65;82.12;99107.22;2113313;28;44133;-70
2022/02/21 04:17:44;;;;;;;;;;;;;;;3.65;81.61;99100.13;2113220;28;45407;-70
2022/02/21 04:18:47;;;;;;;;;;;;;;;3.69;81.87;99108.88;2105935;28;20754;-70
2022/02/21 04:19:49;;;;;;;;;;;;;;;3.66;82.19;99106.28;2105915;28;19931;-70
2022/02/21 04:20:51;;;;;;;;;;;;;;;3.64;82.27;99108.97;2104764;28;45069;-70
2022/02/21 04:21:53;;;;;;;;;;;;;;;3.64;82.15;99103.66;2105262;28;41179;-70
2022/02/21 04:22:54;;;;;;;;;;;;;;;3.65;81.82;99109.84;2104636;28;45526;-70
2022/02/21 04:23:56;;;;;;;;;;;;;;;3.66;81.56;99106.28;2105419;28;19929;-70
2022/02/21 04:24:58;;;;;;;;;;;;;;;3.65;81.71;99112.50;2104863;28;39367;-70
2022/02/21 04:25:59;;;;;;;;;;;;;;;3.65;81.61;99113.38;2095339;28;46480;-70
2022/02/21 04:27:01;;;;;;;;;;;;;;;3.67;80.44;99114.19;2095963;28;44031;-70
2022/02/21 04:28:03;;;;;;;;;;;;;;;3.68;80.52;99107.13;2104573;28;44177;-70
2022/02/21 04:29:04;;;;;;;;;;;;;;;3.70;80.34;99115.91;2103768;28;35960;-71
2022/02/21 04:30:06;;;;;;;;;;;;;;;3.70;80.00;99122.06;2104265;28;42977;-70
2022/02/21 04:31:09;;;;;;;;;;;;;;;3.74;80.93;99122.84;2104660;28;44025;-70
2022/02/21 04:32:13;;;;;;;;;;;;;;;3.73;80.13;99099.94;2105776;28;19951;-70
2022/02/21 04:33:15;;;;;;;;;;;;;;;3.71;79.75;99094.69;2103524;28;44548;-70
2022/02/21 04:34:16;;;;;;;;;;;;;;;3.67;80.26;99111.53;2104159;28;46066;-70
2022/02/21 04:35:19;;;;;;;;;;;;;;;3.62;80.90;99105.50;2104783;28;45151;-70
2022/02/21 04:36:21;;;;;;;;;;;;;;;3.59;80.87;99114.38;2104495;28;46306;-70
2022/02/21 04:37:22;;;;;;;;;;;;;;;3.57;81.47;99104.72;2104997;28;37178;-70
2022/02/21 04:38:24;;;;;;;;;;;;;;;3.53;81.03;99103.06;2104649;28;43424;-70
2022/02/21 04:39:25;;;;;;;;;;;;;;;3.52;81.47;99101.34;2104909;28;46296;-70
2022/02/21 04:40:28;;;;;;;;;;;;;;;3.52;80.69;99106.63;2104951;28;42894;-70
2022/02/21 04:41:30;;;;;;;;;;;;;;;3.47;81.19;99104.09;2106069;28;46389;-70
2022/02/21 04:42:34;;;;;;;;;;;;;;;3.45;81.24;99116.50;2106655;28;29158;-70
2022/02/21 04:43:35;;;;;;;;;;;;;;;3.44;80.99;99112.94;2106213;28;45672;-70
2022/02/21 04:44:37;;;;;;;;;;;;;;;3.53;80.38;99105.72;2106188;28;46477;-69
2022/02/21 04:45:38;;;;;;;;;;;;;;;3.53;80.30;99124.25;2106152;28;43023;-70
2022/02/21 04:46:40;;;;;;;;;;;;;;;3.57;80.38;99102.97;2105671;28;45927;-70
2022/02/21 04:47:42;;;;;;;;;;;;;;;3.58;80.73;99104.69;2106310;28;45723;-70
2022/02/21 04:48:46;;;;;;;;;;;;;;;3.57;81.17;99099.44;2104793;28;44413;-69
2022/02/21 04:49:47;;;;;;;;;;;;;;;3.61;80.93;99109.06;2105536;28;45258;-70
2022/02/21 04:50:51;;;;;;;;;;;;;;;3.59;80.92;99095.88;2096915;28;44323;-70
2022/02/21 04:51:53;;;;;;;;;;;;;;;3.62;80.24;99098.44;2097433;28;43188;-70
2022/02/21 04:52:56;;;;;;;;;;;;;;;3.64;80.18;99087.78;2106187;28;46010;-70
2022/02/21 04:53:57;;;;;;;;;;;;;;;3.64;80.41;99116.91;2106437;28;36307;-70
2022/02/21 04:55:02;;;;;;;;;;;;;;;3.64;80.83;99111.63;2105992;28;44925;-70
2022/02/21 04:56:04;;;;;;;;;;;;;;;3.62;81.34;99124.91;2106138;28;43743;-70
2022/02/21 04:57:06;;;;;;;;;;;;;;;3.59;82.47;99113.53;2105680;28;45711;-69
2022/02/21 04:58:07;;;;;;;;;;;;;;;3.57;81.89;99118.84;2106101;28;45912;-70
2022/02/21 04:59:09;;;;;;;;;;;;;;;3.55;83.40;99127.72;2105547;28;44415;-70
2022/02/21 05:00:13;;;;;;;;;;;;;;;3.53;83.48;99125.09;2105667;28;46223;-70
2022/02/21 05:01:14;;;;;;;;;;;;;;;3.50;84.33;99109.31;2105752;28;43129;-70
2022/02/21 05:02:16;;;;;;;;;;;;;;;3.43;85.11;99121.81;2105393;28;44408;-70
2022/02/21 05:03:18;;;;;;;;;;;;;;;3.39;85.60;99122.81;2106005;28;45909;-70
2022/02/21 05:04:21;;;;;;;;;;;;;;;3.36;84.84;99141.38;2107877;28;19932;-70
2022/02/21 05:05:24;;;;;;;;;;;;;;;3.33;85.73;99137.94;2106153;28;47077;-70
2022/02/21 05:06:25;;;;;;;;;;;;;;;3.28;85.74;99140.66;2106282;28;44477;-70
2022/02/21 05:07:27;;;;;;;;;;;;;;;3.27;86.09;99145.97;2107044;28;23044;-70
2022/02/21 05:08:29;;;;;;;;;;;;;;;3.22;86.34;99130.25;2105867;28;46262;-70
2022/02/21 05:09:31;;;;;;;;;;;;;;;3.20;85.87;99132.91;2106082;28;41855;-70
2022/02/21 05:10:33;;;;;;;;;;;;;;;3.16;86.15;99131.25;2106921;28;20778;-70
2022/02/21 05:11:34;;;;;;;;;;;;;;;3.15;86.12;99128.63;2105990;28;45630;-70
2022/02/21 05:12:36;;;;;;;;;;;;;;;3.14;85.55;99130.41;2105545;28;44289;-70
2022/02/21 05:13:39;;;;;;;;;;;;;;;3.17;85.63;99126.81;2105880;28;46413;-70
2022/02/21 05:14:41;;;;;;;;;;;;;;;3.12;85.38;99129.56;2105957;28;43999;-70
2022/02/21 05:15:42;;;;;;;;;;;;;;;3.10;85.95;99138.44;2105909;28;44015;-70
2022/02/21 05:16:45;;;;;;;;;;;;;;;3.11;85.77;99140.19;2105746;28;39653;-68
2022/02/21 05:17:47;;;;;;;;;;;;;;;3.12;86.34;99139.28;2106139;28;45345;-70
2022/02/21 05:18:48;;;;;;;;;;;;;;;3.16;85.32;99133.00;2114568;28;46412;-70
2022/02/21 05:19:50;;;;;;;;;;;;;;;3.16;85.18;99143.56;2113483;28;42005;-70
2022/02/21 05:20:51;;;;;;;;;;;;;;;3.15;85.45;99134.78;2113790;28;45582;-70
2022/02/21 05:21:55;;;;;;;;;;;;;;;3.17;85.71;99138.25;2114558;28;44554;-70
2022/02/21 05:22:56;;;;;;;;;;;;;;;3.17;85.03;99132.97;2114392;28;39071;-70
2022/02/21 05:23:58;;;;;;;;;;;;;;;3.19;85.06;99143.50;2114321;28;43998;-70
2022/02/21 05:25:02;;;;;;;;;;;;;;;3.19;84.18;99140.88;2114251;28;44330;-70
2022/02/21 05:26:07;;;;;;;;;;;;;;;3.17;84.78;99153.25;2113942;28;45943;-70
2022/02/21 05:27:11;;;;;;;;;;;;;;;3.18;83.92;99137.38;2115509;28;19928;-70
2022/02/21 05:28:16;;;;;;;;;;;;;;;3.20;83.71;99142.63;2115834;28;19920;-70